createdAt,value
2022-08-16T00:00:46.327Z,13.33
2022-08-16T00:03:14.772Z,13.23
2022-08-16T00:05:47.922Z,13.08
2022-08-16T00:08:35.737Z,13.07
2022-08-16T00:11:07.150Z,12.96
2022-08-16T00:13:41.964Z,13.12
2022-08-16T00:17:05.688Z,13.01
2022-08-16T00:18:59.154Z,13.08
2022-08-16T00:21:29.175Z,13.07
2022-08-16T00:23:59.406Z,13.07
2022-08-16T00:26:36.007Z,13.13
2022-08-16T00:29:17.438Z,12.78
2022-08-16T00:32:00.718Z,12.59
2022-08-16T00:34:44.637Z,12.70
2022-08-16T00:37:20.739Z,12.72
2022-08-16T00:39:56.942Z,12.84
2022-08-16T00:42:30.173Z,12.95
2022-08-16T00:45:16.123Z,12.96
2022-08-16T00:47:49.497Z,13.12
2022-08-16T00:50:20.330Z,13.16
2022-08-16T00:52:51.014Z,13.22
2022-08-16T00:55:20.697Z,13.11
2022-08-16T00:57:59.981Z,13.26
2022-08-16T01:00:32.329Z,13.12
2022-08-16T01:03:03.903Z,12.89
2022-08-16T01:05:33.449Z,12.98
2022-08-16T01:08:02.892Z,13.10
2022-08-16T01:10:53.227Z,12.88
2022-08-16T01:13:22.803Z,13.04
2022-08-16T01:15:59.317Z,12.99
2022-08-16T01:18:39.895Z,12.97
2022-08-16T01:21:22.544Z,13.11
2022-08-16T01:24:51.870Z,13.20
2022-08-16T01:27:25.754Z,13.02
2022-08-16T01:29:59.571Z,12.99
2022-08-16T01:32:34.048Z,13.01
2022-08-16T01:35:07.245Z,13.03
2022-08-16T01:37:45.517Z,12.96
2022-08-16T01:40:24.281Z,13.21
2022-08-16T01:42:55.897Z,13.27
2022-08-16T01:45:24.186Z,13.36
2022-08-16T01:48:19.586Z,13.29
2022-08-16T01:51:08.833Z,13.23
2022-08-16T01:53:41.114Z,13.26
2022-08-16T01:56:23.522Z,13.06
2022-08-16T01:58:55.339Z,13.02
2022-08-16T02:01:23.264Z,13.15
2022-08-16T02:03:58.159Z,13.29
2022-08-16T02:06:34.221Z,13.05
2022-08-16T02:09:06.971Z,13.00
2022-08-16T02:11:47.511Z,13.02
2022-08-16T02:14:18.542Z,13.12
2022-08-16T02:16:48.472Z,13.18
2022-08-16T02:19:16.723Z,13.21
2022-08-16T02:22:08.492Z,13.24
2022-08-16T02:24:45.995Z,13.17
2022-08-16T02:27:14.193Z,13.29
2022-08-16T02:29:47.707Z,13.32
2022-08-16T02:32:50.734Z,13.23
2022-08-16T02:35:06.039Z,13.27
2022-08-16T02:37:51.294Z,13.27
2022-08-16T02:40:21.619Z,13.14
2022-08-16T02:42:50.687Z,13.13
2022-08-16T02:45:28.047Z,13.18
2022-08-16T02:48:01.344Z,13.07
2022-08-16T02:51:06.452Z,13.05
2022-08-16T02:53:43.343Z,13.09
2022-08-16T02:56:12.018Z,13.00
2022-08-16T02:58:42.230Z,12.86
2022-08-16T03:01:24.693Z,12.83
2022-08-16T03:04:48.830Z,12.84
2022-08-16T03:06:56.145Z,12.73
2022-08-16T03:09:32.527Z,12.59
2022-08-16T03:12:02.449Z,12.52
2022-08-16T03:14:29.961Z,12.54
2022-08-16T03:17:00.753Z,12.66
2022-08-16T03:19:47.200Z,12.60
2022-08-16T03:22:28.068Z,12.51
2022-08-16T03:24:57.827Z,12.49
2022-08-16T03:27:30.884Z,12.27
2022-08-16T03:30:00.498Z,12.19
2022-08-16T03:32:29.135Z,12.10
2022-08-16T03:34:56.326Z,12.12
2022-08-16T03:37:23.778Z,12.17
2022-08-16T03:39:56.765Z,12.16
2022-08-16T03:42:32.524Z,12.19
2022-08-16T03:45:04.737Z,12.18
2022-08-16T03:47:34.476Z,12.27
2022-08-16T03:50:04.028Z,12.25
2022-08-16T03:52:53.908Z,12.28
2022-08-16T03:55:28.983Z,12.23
2022-08-16T03:58:12.687Z,12.20
2022-08-16T04:00:42.428Z,12.12
2022-08-16T04:03:12.790Z,12.00
2022-08-16T04:05:48.047Z,12.08
2022-08-16T04:08:23.517Z,12.06
2022-08-16T04:10:54.112Z,12.09
2022-08-16T04:14:01.277Z,12.24
2022-08-16T04:16:26.495Z,12.31
2022-08-16T04:19:02.299Z,12.41
2022-08-16T04:21:34.517Z,12.50
2022-08-16T04:24:02.998Z,12.41
2022-08-16T04:26:33.424Z,12.37
2022-08-16T04:29:15.183Z,12.44
2022-08-16T04:31:56.473Z,12.35
2022-08-16T04:34:32.466Z,12.29
2022-08-16T04:37:03.423Z,12.40
2022-08-16T04:39:36.714Z,12.44
2022-08-16T04:42:17.854Z,12.45
2022-08-16T04:44:54.510Z,12.50
2022-08-16T04:47:33.177Z,12.51
2022-08-16T04:50:09.644Z,12.51
2022-08-16T04:52:37.429Z,12.37
2022-08-16T04:55:08.360Z,12.31
2022-08-16T04:57:38.065Z,12.27
2022-08-16T05:00:30.479Z,12.40
2022-08-16T05:03:02.890Z,12.46
2022-08-16T05:05:44.859Z,12.45
2022-08-16T05:08:31.199Z,12.48
2022-08-16T05:11:03.432Z,12.45
2022-08-16T05:13:40.784Z,12.55
2022-08-16T05:16:19.937Z,12.59
2022-08-16T05:18:51.721Z,12.67
2022-08-16T05:21:22.312Z,12.78
2022-08-16T05:23:55.466Z,12.90
2022-08-16T05:26:23.709Z,13.03
2022-08-16T05:28:55.178Z,13.07
2022-08-16T05:31:29.896Z,13.15
2022-08-16T05:33:59.398Z,13.25
2022-08-16T05:36:34.057Z,13.38
2022-08-16T05:39:08.753Z,13.35
2022-08-16T05:41:44.776Z,13.94
2022-08-16T05:44:22.840Z,14.76
2022-08-16T05:46:55.928Z,14.81
2022-08-16T05:49:23.855Z,14.83
2022-08-16T05:51:53.099Z,15.06
2022-08-16T05:54:24.927Z,15.06
2022-08-16T05:57:03.511Z,14.78
2022-08-16T05:59:33.574Z,14.68
2022-08-16T06:02:02.791Z,14.75
2022-08-16T06:04:42.222Z,15.23
2022-08-16T06:07:24.606Z,15.70
2022-08-16T06:09:55.385Z,15.87
2022-08-16T06:12:27.472Z,15.85
2022-08-16T06:15:00.188Z,15.99
2022-08-16T06:17:42.286Z,16.42
2022-08-16T06:20:23.251Z,16.91
2022-08-16T06:22:58.683Z,17.41
2022-08-16T06:25:36.643Z,17.82
2022-08-16T06:28:17.139Z,18.29
2022-08-16T06:30:57.350Z,18.44
2022-08-16T06:33:25.050Z,18.50
2022-08-16T06:35:55.049Z,18.77
2022-08-16T06:38:32.198Z,19.06
2022-08-16T06:41:06.558Z,19.34
2022-08-16T06:43:42.242Z,19.59
2022-08-16T06:46:31.985Z,19.90
2022-08-16T06:49:06.944Z,20.19
2022-08-16T06:51:48.189Z,20.52
2022-08-16T06:54:19.871Z,20.72
2022-08-16T06:56:47.193Z,20.83
2022-08-16T06:59:25.589Z,20.99
2022-08-16T07:01:58.303Z,21.20
2022-08-16T07:04:32.832Z,21.32
2022-08-16T07:07:04.804Z,21.42
2022-08-16T07:09:34.860Z,21.44
2022-08-16T07:12:06.553Z,21.50
2022-08-16T07:14:35.179Z,21.41
2022-08-16T07:17:03.314Z,21.16
2022-08-16T07:20:28.980Z,21.24
2022-08-16T07:22:37.117Z,21.19
2022-08-16T07:25:12.660Z,21.28
2022-08-16T07:27:41.154Z,21.49
2022-08-16T07:30:39.786Z,21.78
2022-08-16T07:32:58.395Z,21.82
2022-08-16T07:35:25.718Z,22.07
2022-08-16T07:37:52.897Z,22.11
2022-08-16T07:40:36.913Z,21.92
2022-08-16T07:43:11.256Z,22.00
2022-08-16T07:45:38.314Z,22.10
2022-08-16T07:48:11.121Z,22.02
2022-08-16T07:50:56.185Z,22.04
2022-08-16T07:53:29.081Z,21.87
2022-08-16T07:55:59.791Z,21.75
2022-08-16T07:58:34.753Z,20.94
2022-08-16T08:01:10.729Z,21.61
2022-08-16T08:06:13.708Z,22.31
2022-08-16T08:08:51.128Z,22.12
2022-08-16T08:11:23.747Z,22.43
2022-08-16T08:13:55.840Z,22.58
2022-08-16T08:16:30.315Z,22.48
2022-08-16T08:19:03.184Z,22.21
2022-08-16T08:21:58.858Z,22.51
2022-08-16T08:24:21.728Z,22.65
2022-08-16T08:26:54.568Z,22.63
2022-08-16T08:29:37.309Z,23.15
2022-08-16T08:32:58.370Z,23.19
2022-08-16T08:35:03.187Z,23.36
2022-08-16T08:37:55.407Z,23.18
2022-08-16T08:40:27.197Z,23.26
2022-08-16T08:43:11.984Z,23.60
2022-08-16T08:45:48.072Z,23.64
2022-08-16T08:48:34.062Z,23.61
2022-08-16T08:51:05.320Z,23.45
2022-08-16T08:53:38.153Z,23.16
2022-08-16T08:56:22.422Z,23.38
2022-08-16T08:58:59.966Z,23.46
2022-08-16T09:01:36.437Z,22.89
2022-08-16T09:04:14.890Z,22.99
2022-08-16T09:06:44.794Z,23.56
2022-08-16T09:09:17.134Z,23.96
2022-08-16T09:12:06.069Z,24.46
2022-08-16T09:14:37.714Z,24.59
2022-08-16T09:17:11.850Z,24.10
2022-08-16T09:19:48.484Z,24.78
2022-08-16T09:22:21.329Z,25.12
2022-08-16T09:24:52.607Z,25.42
2022-08-16T09:27:23.467Z,25.45
2022-08-16T09:30:00.245Z,25.66
2022-08-16T09:32:32.008Z,25.61
2022-08-16T09:35:00.166Z,25.54
2022-08-16T09:37:29.338Z,25.09
2022-08-16T09:39:57.423Z,25.27
2022-08-16T09:42:29.607Z,25.36
2022-08-16T09:45:09.773Z,25.86
2022-08-16T09:47:56.631Z,26.23
2022-08-16T09:50:37.045Z,25.50
2022-08-16T09:53:07.843Z,25.96
2022-08-16T09:55:44.584Z,26.36
2022-08-16T09:58:40.596Z,26.43
2022-08-16T10:01:03.618Z,26.70
2022-08-16T10:03:33.377Z,26.94
2022-08-16T10:06:00.877Z,25.82
2022-08-16T10:08:29.992Z,26.48
2022-08-16T10:10:58.060Z,26.10
2022-08-16T10:13:30.035Z,26.10
2022-08-16T10:16:05.872Z,26.70
2022-08-16T10:19:00.987Z,27.06
2022-08-16T10:21:24.464Z,27.22
2022-08-16T10:23:56.189Z,27.49
2022-08-16T10:27:16.668Z,27.30
2022-08-16T10:29:12.089Z,27.20
2022-08-16T10:31:53.467Z,27.52
2022-08-16T10:34:30.757Z,27.79
2022-08-16T10:37:02.424Z,27.85
2022-08-16T10:39:40.599Z,27.89
2022-08-16T10:42:09.039Z,28.10
2022-08-16T10:44:39.215Z,27.94
2022-08-16T10:47:07.422Z,28.01
2022-08-16T10:49:36.441Z,28.23
2022-08-16T10:52:18.875Z,28.43
2022-08-16T10:57:33.402Z,28.72
2022-08-16T11:00:02.401Z,28.77
2022-08-16T11:02:57.560Z,28.87
2022-08-16T11:05:19.734Z,29.06
2022-08-16T11:07:52.300Z,28.85
2022-08-16T11:16:25.483Z,28.69
2022-08-16T11:19:04.192Z,28.80
2022-08-16T11:21:35.089Z,27.75
2022-08-16T11:24:39.255Z,27.46
2022-08-16T11:29:45.513Z,28.12
2022-08-16T11:32:12.585Z,28.41
2022-08-16T11:35:05.917Z,27.80
2022-08-16T11:38:04.363Z,28.22
2022-08-16T11:40:20.179Z,27.82
2022-08-16T11:43:00.455Z,27.45
2022-08-16T11:45:27.432Z,27.07
2022-08-16T11:48:00.887Z,27.74
2022-08-16T11:50:32.619Z,27.96
2022-08-16T11:52:59.973Z,27.81
2022-08-16T11:55:29.644Z,28.12
2022-08-16T11:57:58.279Z,28.25
2022-08-16T12:00:33.958Z,28.47
2022-08-16T12:03:16.399Z,28.28
2022-08-16T12:05:51.777Z,28.55
2022-08-16T12:08:21.566Z,28.11
2022-08-16T12:10:53.166Z,28.30
2022-08-16T12:13:20.389Z,27.63
2022-08-16T12:15:51.667Z,27.92
2022-08-16T12:18:20.604Z,28.30
2022-08-16T12:20:50.160Z,28.75
2022-08-16T12:23:17.714Z,29.03
2022-08-16T12:25:45.946Z,28.82
2022-08-16T12:28:16.217Z,28.38
2022-08-16T12:30:52.454Z,28.05
2022-08-16T12:33:25.484Z,27.57
2022-08-16T12:35:55.128Z,27.47
2022-08-16T12:38:40.860Z,27.45
2022-08-16T12:41:10.187Z,27.49
2022-08-16T12:43:37.296Z,27.82
2022-08-16T12:46:14.253Z,28.25
2022-08-16T12:48:43.812Z,28.69
2022-08-16T12:51:22.355Z,28.82
2022-08-16T12:53:53.351Z,28.35
2022-08-16T12:56:25.171Z,28.11
2022-08-16T12:58:56.078Z,27.98
2022-08-16T13:01:27.157Z,28.19
2022-08-16T13:04:20.800Z,28.44
2022-08-16T13:06:48.065Z,28.54
2022-08-16T13:09:26.465Z,28.83
2022-08-16T13:12:00.514Z,29.00
2022-08-16T13:14:33.170Z,28.97
2022-08-16T13:17:02.003Z,29.01
2022-08-16T13:19:56.034Z,28.74
2022-08-16T13:22:24.268Z,28.42
2022-08-16T13:24:52.096Z,28.22
2022-08-16T13:28:03.459Z,27.96
2022-08-16T13:30:11.359Z,28.39
2022-08-16T13:32:58.482Z,28.60
2022-08-16T13:35:27.860Z,28.89
2022-08-16T13:38:03.944Z,28.77
2022-08-16T13:40:33.384Z,28.60
2022-08-16T13:43:02.014Z,28.16
2022-08-16T13:45:36.100Z,27.95
2022-08-16T13:48:04.729Z,27.68
2022-08-16T13:50:51.283Z,27.61
2022-08-16T13:53:24.111Z,27.29
2022-08-16T13:55:57.992Z,27.05
2022-08-16T13:58:34.444Z,27.15
2022-08-16T14:01:04.148Z,27.13
2022-08-16T14:03:44.027Z,26.40
2022-08-16T14:06:12.968Z,26.40
2022-08-16T14:08:44.083Z,26.16
2022-08-16T14:11:18.778Z,26.31
2022-08-16T14:13:51.073Z,26.20
2022-08-16T14:16:23.863Z,26.59
2022-08-16T14:18:52.749Z,26.29
2022-08-16T14:21:23.585Z,26.07
2022-08-16T14:23:52.662Z,26.42
2022-08-16T14:26:21.215Z,26.38
2022-08-16T14:28:48.551Z,26.54
2022-08-16T14:31:18.113Z,26.54
2022-08-16T14:33:47.520Z,26.75
2022-08-16T14:36:25.065Z,26.88
2022-08-16T14:39:00.346Z,26.91
2022-08-16T14:41:30.051Z,26.88
2022-08-16T14:43:58.586Z,26.87
2022-08-16T14:46:27.333Z,26.72
2022-08-16T14:48:54.595Z,26.58
2022-08-16T14:51:22.817Z,26.56
2022-08-16T14:53:59.839Z,26.55
2022-08-16T14:56:38.795Z,26.49
2022-08-16T14:59:10.771Z,26.56
2022-08-16T15:01:57.640Z,26.56
2022-08-16T15:04:39.353Z,26.52
2022-08-16T15:07:10.796Z,26.25
2022-08-16T15:09:43.944Z,26.27
2022-08-16T15:12:36.020Z,26.30
2022-08-16T15:15:12.366Z,26.30
2022-08-16T15:17:56.184Z,25.96
2022-08-16T15:20:26.639Z,26.12
2022-08-16T15:22:55.688Z,26.08
2022-08-16T15:25:29.215Z,26.04
2022-08-16T15:27:59.294Z,25.92
2022-08-16T15:30:58.449Z,25.70
2022-08-16T15:33:16.674Z,25.50
2022-08-16T15:35:46.504Z,25.40
2022-08-16T15:38:54.765Z,25.40
2022-08-16T15:41:19.681Z,25.45
2022-08-16T15:44:05.021Z,25.50
2022-08-16T15:46:56.868Z,25.49
2022-08-16T15:49:38.134Z,25.52
2022-08-16T15:52:15.837Z,25.52
2022-08-16T15:54:52.432Z,25.49
2022-08-16T15:57:24.811Z,25.38
2022-08-16T15:59:55.989Z,25.25
2022-08-16T16:02:29.171Z,25.24
2022-08-16T16:05:04.312Z,25.07
2022-08-16T16:07:33.755Z,24.92
2022-08-16T16:10:04.971Z,24.94
2022-08-16T16:12:53.759Z,24.69
2022-08-16T16:15:25.814Z,24.42
2022-08-16T16:17:57.763Z,24.31
2022-08-16T16:20:31.707Z,24.30
2022-08-16T16:23:02.623Z,24.14
2022-08-16T16:25:33.300Z,24.12
2022-08-16T16:28:01.672Z,24.10
2022-08-16T16:30:45.034Z,23.87
2022-08-16T16:33:22.304Z,23.86
2022-08-16T16:35:56.982Z,23.66
2022-08-16T16:38:26.540Z,23.52
2022-08-16T16:40:59.733Z,23.46
2022-08-16T16:43:31.965Z,23.27
2022-08-16T16:46:02.240Z,23.28
2022-08-16T16:48:34.964Z,23.27
2022-08-16T16:51:10.214Z,23.14
2022-08-16T16:53:40.424Z,23.14
2022-08-16T16:56:19.421Z,23.12
2022-08-16T16:58:53.938Z,23.05
2022-08-16T17:01:35.218Z,22.90
2022-08-16T17:04:19.838Z,22.79
2022-08-16T17:06:53.453Z,22.77
2022-08-16T17:09:24.264Z,22.70
2022-08-16T17:11:55.178Z,22.69
2022-08-16T17:14:33.593Z,22.62
2022-08-16T17:17:06.199Z,22.55
2022-08-16T17:19:41.021Z,22.46
2022-08-16T17:22:14.744Z,22.24
2022-08-16T17:24:45.482Z,21.93
2022-08-16T17:27:33.944Z,21.74
2022-08-16T17:30:15.833Z,21.36
2022-08-16T17:32:47.999Z,21.49
2022-08-16T17:35:22.937Z,21.28
2022-08-16T17:37:54.666Z,21.05
2022-08-16T17:40:47.213Z,20.89
2022-08-16T17:43:18.803Z,21.04
2022-08-16T17:45:49.220Z,20.77
2022-08-16T17:48:16.167Z,20.67
2022-08-16T17:50:46.078Z,20.38
2022-08-16T17:53:13.642Z,20.49
2022-08-16T17:55:44.655Z,20.39
2022-08-16T17:58:22.365Z,20.24
2022-08-16T18:04:06.865Z,20.00
2022-08-16T18:06:16.460Z,19.65
2022-08-16T18:08:44.003Z,19.54
2022-08-16T18:11:12.089Z,19.58
2022-08-16T18:13:46.184Z,19.60
2022-08-16T18:16:15.629Z,19.55
2022-08-16T18:18:46.444Z,19.42
2022-08-16T18:21:15.112Z,19.37
2022-08-16T18:23:42.379Z,19.16
2022-08-16T18:26:13.419Z,18.88
2022-08-16T18:28:40.462Z,18.68
2022-08-16T18:31:08.516Z,18.51
2022-08-16T18:33:43.677Z,18.48
2022-08-16T18:36:20.473Z,18.27
2022-08-16T18:38:49.470Z,18.12
2022-08-16T18:41:18.733Z,18.23
2022-08-16T18:44:24.293Z,18.19
2022-08-16T18:46:32.874Z,17.94
2022-08-16T18:49:01.168Z,17.78
2022-08-16T18:51:30.184Z,17.69
2022-08-16T18:53:58.836Z,17.66
2022-08-16T18:56:53.888Z,17.71
2022-08-16T18:59:13.242Z,17.71
2022-08-16T19:01:40.137Z,17.74
2022-08-16T19:04:55.097Z,17.77
2022-08-16T19:06:57.592Z,17.79
2022-08-16T19:09:24.531Z,17.58
2022-08-16T19:11:53.934Z,17.47
2022-08-16T19:14:21.433Z,17.43
2022-08-16T19:16:48.800Z,17.43
2022-08-16T19:19:17.383Z,17.45
2022-08-16T19:21:46.132Z,17.19
2022-08-16T19:24:17.823Z,17.15
2022-08-16T19:26:49.929Z,16.96
2022-08-16T19:29:17.261Z,17.22
2022-08-16T19:31:44.331Z,17.57
2022-08-16T19:34:11.241Z,17.46
2022-08-16T19:36:44.799Z,17.50
2022-08-16T19:39:14.342Z,17.60
2022-08-16T19:41:44.821Z,17.59
2022-08-16T19:44:12.643Z,17.62
2022-08-16T19:46:41.805Z,17.71
2022-08-16T19:49:08.830Z,17.56
2022-08-16T19:51:51.751Z,17.60
2022-08-16T19:54:18.708Z,17.37
2022-08-16T19:56:46.191Z,17.19
2022-08-16T19:59:40.121Z,17.15
2022-08-16T20:02:03.164Z,17.15
2022-08-16T20:04:30.455Z,16.94
2022-08-16T20:07:00.426Z,17.02
2022-08-16T20:09:29.083Z,17.04
2022-08-16T20:12:00.380Z,17.03
2022-08-16T20:14:29.169Z,17.02
2022-08-16T20:16:58.653Z,17.10
2022-08-16T20:19:28.710Z,17.12
2022-08-16T20:22:05.734Z,17.21
2022-08-16T20:24:36.019Z,17.20
2022-08-16T20:27:07.779Z,17.12
2022-08-16T20:29:36.276Z,17.06
2022-08-16T20:32:10.737Z,16.98
2022-08-16T20:34:38.305Z,16.67
2022-08-16T20:37:06.888Z,16.75
2022-08-16T20:39:34.478Z,16.84
2022-08-16T20:42:02.609Z,16.49
2022-08-16T20:44:29.803Z,16.25
2022-08-16T20:46:56.897Z,16.45
2022-08-16T20:52:02.314Z,16.54
2022-08-16T20:54:31.048Z,16.59
2022-08-16T20:57:01.487Z,16.49
2022-08-16T20:59:29.845Z,16.51
2022-08-16T21:01:57.636Z,16.52
2022-08-16T21:04:28.950Z,16.43
2022-08-16T21:06:56.907Z,16.42
2022-08-16T21:09:25.487Z,16.31
2022-08-16T21:11:56.240Z,16.38
2022-08-16T21:14:24.611Z,16.53
2022-08-16T21:16:51.586Z,16.32
2022-08-16T21:19:19.844Z,16.50
2022-08-16T21:21:47.490Z,16.66
2022-08-16T21:24:24.641Z,16.60
2022-08-16T21:26:56.429Z,16.49
2022-08-16T21:29:39.850Z,16.48
2022-08-16T21:32:13.674Z,16.44
2022-08-16T21:34:41.754Z,16.46
2022-08-16T21:37:09.808Z,16.37
2022-08-16T21:39:37.574Z,16.13
2022-08-16T21:42:12.787Z,15.95
2022-08-16T21:44:39.991Z,15.95
2022-08-16T21:47:10.676Z,15.86
2022-08-16T21:49:40.115Z,15.82
2022-08-16T21:52:26.686Z,15.80
2022-08-16T21:54:56.293Z,16.11
2022-08-16T21:57:26.528Z,16.15
2022-08-16T22:00:07.661Z,16.19
2022-08-16T22:02:47.899Z,16.15
2022-08-16T22:05:18.807Z,15.92
2022-08-16T22:07:46.481Z,16.14
2022-08-16T22:11:07.159Z,16.28
2022-08-16T22:13:15.755Z,16.37
2022-08-16T22:15:45.650Z,16.41
2022-08-16T22:18:18.679Z,16.41
2022-08-16T22:20:48.419Z,16.34
2022-08-16T22:23:25.349Z,16.12
2022-08-16T22:25:54.352Z,16.00
2022-08-16T22:28:23.431Z,15.76
2022-08-16T22:30:51.083Z,15.70
2022-08-16T22:33:29.385Z,15.91
2022-08-16T22:36:01.359Z,15.83
2022-08-16T22:38:56.718Z,15.88
2022-08-16T22:41:22.051Z,15.87
2022-08-16T22:43:53.225Z,15.85
2022-08-16T22:46:20.202Z,15.89
2022-08-16T22:48:48.442Z,15.83
2022-08-16T22:51:15.406Z,15.74
2022-08-16T22:53:43.434Z,15.90
2022-08-16T22:56:10.751Z,16.04
2022-08-16T22:58:39.160Z,16.14
2022-08-16T23:01:09.538Z,16.04
2022-08-16T23:03:38.603Z,15.89
2022-08-16T23:06:07.247Z,15.79
2022-08-16T23:08:39.295Z,15.82
2022-08-16T23:11:14.699Z,15.87
2022-08-16T23:13:53.213Z,15.83
2022-08-16T23:16:25.059Z,15.74
2022-08-16T23:19:00.232Z,15.74
2022-08-16T23:21:30.238Z,15.80
2022-08-16T23:24:02.751Z,15.88
2022-08-16T23:26:44.811Z,15.83
2022-08-16T23:29:24.501Z,15.97
2022-08-16T23:32:15.583Z,15.91
2022-08-16T23:34:45.783Z,15.80
2022-08-16T23:37:19.676Z,15.50
2022-08-16T23:39:54.595Z,15.87
2022-08-16T23:42:53.131Z,15.85
2022-08-16T23:45:14.667Z,15.71
2022-08-16T23:47:47.276Z,15.66
2022-08-16T23:50:14.806Z,15.86
2022-08-16T23:52:55.947Z,15.88
2022-08-16T23:55:28.990Z,15.71
2022-08-16T23:58:04.440Z,15.70
